Terminal Aerodrome Forecast
Issued by NWS

Home | Current Version | Previous Version | Graphics & Text | Print | Product List | Glossary On
Versions: 1 2 3 4 5 6 7 8 9 10 11 12 13 14 15 16 17 18 19 20 21 22 23 24
000
FTUS42 KMHX 311741
TAFOAJ
TAF
KOAJ 311741Z 3118/0118 14007KT P6SM SHRA SCT015 OVC035
     FM312100 14005KT P6SM VCSH BKN015
     FM010600 00000KT 4SM BR OVC007
      TEMPO 0108/0112 1SM BR OVC004
     FM011500 VRB03KT P6SM BKN025
      AMD LTD TO CLD VIS AND WIND=

USA.gov is the U.S. government's official web portal to all federal, state and local government web resources and services.